sensor_id;sensor_type;location;lat;lon;timestamp;P1;durP1;ratioP1;P2;durP2;ratioP2
16272;SDS011;8244;50.044;9.006;2023-09-08T00:03:59;9.93;;;7.30;;
16272;SDS011;8244;50.044;9.006;2023-09-08T00:09:02;9.85;;;6.88;;
16272;SDS011;8244;50.044;9.006;2023-09-08T00:14:05;11.30;;;7.60;;
16272;SDS011;8244;50.044;9.006;2023-09-08T00:19:07;12.15;;;7.38;;
16272;SDS011;8244;50.044;9.006;2023-09-08T00:24:10;11.25;;;7.55;;
16272;SDS011;8244;50.044;9.006;2023-09-08T00:29:12;12.90;;;8.05;;
16272;SDS011;8244;50.044;9.006;2023-09-08T00:34:14;12.15;;;7.22;;
16272;SDS011;8244;50.044;9.006;2023-09-08T00:39:17;12.55;;;8.07;;
16272;SDS011;8244;50.044;9.006;2023-09-08T00:44:18;10.52;;;7.53;;
16272;SDS011;8244;50.044;9.006;2023-09-08T00:49:20;13.48;;;8.85;;
16272;SDS011;8244;50.044;9.006;2023-09-08T00:54:23;11.32;;;8.50;;
16272;SDS011;8244;50.044;9.006;2023-09-08T00:59:25;10.93;;;7.65;;
16272;SDS011;8244;50.044;9.006;2023-09-08T01:04:27;13.68;;;8.93;;
16272;SDS011;8244;50.044;9.006;2023-09-08T01:09:31;12.75;;;8.38;;
16272;SDS011;8244;50.044;9.006;2023-09-08T01:14:33;12.18;;;8.52;;
16272;SDS011;8244;50.044;9.006;2023-09-08T01:19:34;12.88;;;8.23;;
16272;SDS011;8244;50.044;9.006;2023-09-08T01:24:42;13.15;;;8.63;;
16272;SDS011;8244;50.044;9.006;2023-09-08T01:30:05;14.65;;;8.23;;
16272;SDS011;8244;50.044;9.006;2023-09-08T01:35:09;13.70;;;9.25;;
16272;SDS011;8244;50.044;9.006;2023-09-08T01:40:13;10.38;;;7.40;;
16272;SDS011;8244;50.044;9.006;2023-09-08T01:45:15;9.90;;;7.10;;
16272;SDS011;8244;50.044;9.006;2023-09-08T01:50:17;10.68;;;7.63;;
16272;SDS011;8244;50.044;9.006;2023-09-08T01:55:24;12.05;;;8.75;;
16272;SDS011;8244;50.044;9.006;2023-09-08T02:00:25;13.45;;;7.60;;
16272;SDS011;8244;50.044;9.006;2023-09-08T02:05:27;10.98;;;7.63;;
16272;SDS011;8244;50.044;9.006;2023-09-08T02:10:30;13.57;;;7.53;;
16272;SDS011;8244;50.044;9.006;2023-09-08T02:15:34;12.15;;;7.97;;
16272;SDS011;8244;50.044;9.006;2023-09-08T02:20:36;13.05;;;8.55;;
16272;SDS011;8244;50.044;9.006;2023-09-08T02:25:41;10.95;;;7.57;;
16272;SDS011;8244;50.044;9.006;2023-09-08T02:30:43;11.68;;;8.30;;
16272;SDS011;8244;50.044;9.006;2023-09-08T02:35:44;10.00;;;7.78;;
16272;SDS011;8244;50.044;9.006;2023-09-08T02:40:48;11.30;;;8.23;;
16272;SDS011;8244;50.044;9.006;2023-09-08T02:45:53;11.52;;;7.80;;
16272;SDS011;8244;50.044;9.006;2023-09-08T02:50:56;10.75;;;7.43;;
16272;SDS011;8244;50.044;9.006;2023-09-08T03:01:48;10.40;;;7.45;;
16272;SDS011;8244;50.044;9.006;2023-09-08T03:06:50;11.30;;;7.47;;
16272;SDS011;8244;50.044;9.006;2023-09-08T03:11:51;11.48;;;8.02;;
16272;SDS011;8244;50.044;9.006;2023-09-08T03:16:55;11.43;;;8.23;;
16272;SDS011;8244;50.044;9.006;2023-09-08T03:21:56;11.55;;;7.35;;
16272;SDS011;8244;50.044;9.006;2023-09-08T03:26:58;11.18;;;7.35;;
16272;SDS011;8244;50.044;9.006;2023-09-08T03:32:01;12.15;;;7.85;;
16272;SDS011;8244;50.044;9.006;2023-09-08T03:37:04;12.43;;;8.63;;
16272;SDS011;8244;50.044;9.006;2023-09-08T03:42:05;10.77;;;8.07;;
16272;SDS011;8244;50.044;9.006;2023-09-08T03:47:09;10.90;;;8.30;;
16272;SDS011;8244;50.044;9.006;2023-09-08T03:52:10;9.90;;;7.90;;
16272;SDS011;8244;50.044;9.006;2023-09-08T03:57:17;11.02;;;8.13;;
16272;SDS011;8244;50.044;9.006;2023-09-08T04:02:20;12.55;;;8.32;;
16272;SDS011;8244;50.044;9.006;2023-09-08T04:07:21;12.32;;;7.28;;
16272;SDS011;8244;50.044;9.006;2023-09-08T04:12:23;9.73;;;6.90;;
16272;SDS011;8244;50.044;9.006;2023-09-08T04:17:26;11.98;;;7.82;;
16272;SDS011;8244;50.044;9.006;2023-09-08T04:22:29;11.68;;;7.72;;
16272;SDS011;8244;50.044;9.006;2023-09-08T04:27:30;13.88;;;8.20;;
16272;SDS011;8244;50.044;9.006;2023-09-08T04:32:34;12.80;;;8.43;;
16272;SDS011;8244;50.044;9.006;2023-09-08T04:37:37;10.20;;;8.18;;
16272;SDS011;8244;50.044;9.006;2023-09-08T04:42:40;10.27;;;6.85;;
16272;SDS011;8244;50.044;9.006;2023-09-08T04:47:43;13.52;;;7.68;;
16272;SDS011;8244;50.044;9.006;2023-09-08T04:52:46;11.75;;;7.53;;
16272;SDS011;8244;50.044;9.006;2023-09-08T04:57:49;10.35;;;6.82;;
16272;SDS011;8244;50.044;9.006;2023-09-08T05:02:52;13.70;;;8.10;;
16272;SDS011;8244;50.044;9.006;2023-09-08T05:07:54;8.88;;;6.30;;
16272;SDS011;8244;50.044;9.006;2023-09-08T05:12:56;11.32;;;8.13;;
16272;SDS011;8244;50.044;9.006;2023-09-08T05:18:00;13.60;;;8.82;;
16272;SDS011;8244;50.044;9.006;2023-09-08T05:23:01;12.73;;;8.43;;
16272;SDS011;8244;50.044;9.006;2023-09-08T05:28:04;12.65;;;7.95;;
16272;SDS011;8244;50.044;9.006;2023-09-08T05:33:08;12.95;;;7.93;;
16272;SDS011;8244;50.044;9.006;2023-09-08T05:38:09;11.20;;;7.32;;
16272;SDS011;8244;50.044;9.006;2023-09-08T05:43:11;8.50;;;6.25;;
16272;SDS011;8244;50.044;9.006;2023-09-08T05:48:14;12.30;;;6.50;;
16272;SDS011;8244;50.044;9.006;2023-09-08T05:53:16;10.57;;;5.50;;
16272;SDS011;8244;50.044;9.006;2023-09-08T05:58:18;9.98;;;5.57;;
16272;SDS011;8244;50.044;9.006;2023-09-08T06:03:21;10.73;;;5.80;;
16272;SDS011;8244;50.044;9.006;2023-09-08T06:08:23;11.18;;;5.95;;
16272;SDS011;8244;50.044;9.006;2023-09-08T06:13:24;10.73;;;6.30;;
16272;SDS011;8244;50.044;9.006;2023-09-08T06:18:28;12.32;;;6.53;;
16272;SDS011;8244;50.044;9.006;2023-09-08T06:23:31;11.13;;;7.10;;
16272;SDS011;8244;50.044;9.006;2023-09-08T06:28:33;10.52;;;6.68;;
16272;SDS011;8244;50.044;9.006;2023-09-08T06:33:36;11.77;;;6.65;;
16272;SDS011;8244;50.044;9.006;2023-09-08T06:38:38;10.15;;;7.03;;
16272;SDS011;8244;50.044;9.006;2023-09-08T06:43:40;12.85;;;7.25;;
16272;SDS011;8244;50.044;9.006;2023-09-08T06:48:43;10.15;;;6.75;;
16272;SDS011;8244;50.044;9.006;2023-09-08T06:53:49;14.50;;;7.35;;
16272;SDS011;8244;50.044;9.006;2023-09-08T06:58:55;11.35;;;6.78;;
16272;SDS011;8244;50.044;9.006;2023-09-08T07:03:59;11.38;;;6.80;;
16272;SDS011;8244;50.044;9.006;2023-09-08T07:09:00;11.30;;;6.22;;
16272;SDS011;8244;50.044;9.006;2023-09-08T07:14:02;14.55;;;6.45;;
16272;SDS011;8244;50.044;9.006;2023-09-08T07:19:06;14.55;;;6.22;;
16272;SDS011;8244;50.044;9.006;2023-09-08T07:24:08;9.13;;;5.57;;
16272;SDS011;8244;50.044;9.006;2023-09-08T07:29:09;16.40;;;5.95;;
16272;SDS011;8244;50.044;9.006;2023-09-08T07:34:13;10.18;;;5.30;;
16272;SDS011;8244;50.044;9.006;2023-09-08T07:39:15;10.38;;;5.07;;
16272;SDS011;8244;50.044;9.006;2023-09-08T07:44:16;8.23;;;5.28;;
16272;SDS011;8244;50.044;9.006;2023-09-08T07:49:20;9.88;;;4.60;;
16272;SDS011;8244;50.044;9.006;2023-09-08T07:54:21;9.98;;;4.28;;
16272;SDS011;8244;50.044;9.006;2023-09-08T07:59:23;14.65;;;4.38;;
16272;SDS011;8244;50.044;9.006;2023-09-08T08:04:27;10.23;;;4.32;;
16272;SDS011;8244;50.044;9.006;2023-09-08T08:09:29;8.30;;;3.85;;
16272;SDS011;8244;50.044;9.006;2023-09-08T08:14:30;7.35;;;4.25;;
16272;SDS011;8244;50.044;9.006;2023-09-08T08:19:33;12.48;;;4.15;;
16272;SDS011;8244;50.044;9.006;2023-09-08T08:24:37;6.65;;;3.97;;
16272;SDS011;8244;50.044;9.006;2023-09-08T08:29:39;5.80;;;3.33;;
16272;SDS011;8244;50.044;9.006;2023-09-08T08:34:42;4.03;;;3.30;;
16272;SDS011;8244;50.044;9.006;2023-09-08T08:39:45;5.15;;;3.78;;
16272;SDS011;8244;50.044;9.006;2023-09-08T08:44:46;9.65;;;3.42;;
16272;SDS011;8244;50.044;9.006;2023-09-08T08:49:50;4.95;;;3.40;;
16272;SDS011;8244;50.044;9.006;2023-09-08T08:54:52;4.70;;;3.55;;
16272;SDS011;8244;50.044;9.006;2023-09-08T08:59:55;4.75;;;3.50;;
16272;SDS011;8244;50.044;9.006;2023-09-08T09:04:59;6.55;;;3.53;;
16272;SDS011;8244;50.044;9.006;2023-09-08T09:10:01;6.45;;;3.67;;
16272;SDS011;8244;50.044;9.006;2023-09-08T09:15:04;6.78;;;3.83;;
16272;SDS011;8244;50.044;9.006;2023-09-08T09:20:14;7.03;;;3.70;;
16272;SDS011;8244;50.044;9.006;2023-09-08T09:25:22;7.00;;;3.55;;
16272;SDS011;8244;50.044;9.006;2023-09-08T09:30:25;9.57;;;3.60;;
16272;SDS011;8244;50.044;9.006;2023-09-08T09:35:43;5.75;;;3.40;;
16272;SDS011;8244;50.044;9.006;2023-09-08T09:40:46;4.65;;;3.40;;
16272;SDS011;8244;50.044;9.006;2023-09-08T09:45:48;4.88;;;3.20;;
16272;SDS011;8244;50.044;9.006;2023-09-08T09:50:51;6.43;;;3.28;;
16272;SDS011;8244;50.044;9.006;2023-09-08T09:55:54;5.20;;;3.30;;
16272;SDS011;8244;50.044;9.006;2023-09-08T10:00:58;6.85;;;3.42;;
16272;SDS011;8244;50.044;9.006;2023-09-08T10:06:02;5.05;;;3.33;;
16272;SDS011;8244;50.044;9.006;2023-09-08T10:11:05;5.57;;;3.40;;
16272;SDS011;8244;50.044;9.006;2023-09-08T10:16:08;7.00;;;3.60;;
16272;SDS011;8244;50.044;9.006;2023-09-08T10:21:15;7.15;;;3.47;;
16272;SDS011;8244;50.044;9.006;2023-09-08T10:26:18;7.38;;;3.58;;
16272;SDS011;8244;50.044;9.006;2023-09-08T10:31:25;5.28;;;3.35;;
16272;SDS011;8244;50.044;9.006;2023-09-08T10:36:29;5.30;;;3.30;;
16272;SDS011;8244;50.044;9.006;2023-09-08T10:41:31;7.63;;;3.20;;
16272;SDS011;8244;50.044;9.006;2023-09-08T10:46:34;3.80;;;3.00;;
16272;SDS011;8244;50.044;9.006;2023-09-08T10:51:41;4.05;;;3.42;;
16272;SDS011;8244;50.044;9.006;2023-09-08T10:56:48;6.50;;;3.22;;
16272;SDS011;8244;50.044;9.006;2023-09-08T11:01:55;3.60;;;3.00;;
16272;SDS011;8244;50.044;9.006;2023-09-08T11:06:59;7.80;;;3.70;;
16272;SDS011;8244;50.044;9.006;2023-09-08T11:12:02;4.20;;;3.03;;
16272;SDS011;8244;50.044;9.006;2023-09-08T11:17:08;5.60;;;3.17;;
16272;SDS011;8244;50.044;9.006;2023-09-08T11:22:11;5.05;;;3.00;;
16272;SDS011;8244;50.044;9.006;2023-09-08T11:27:19;4.32;;;2.95;;
16272;SDS011;8244;50.044;9.006;2023-09-08T11:32:22;3.75;;;2.90;;
16272;SDS011;8244;50.044;9.006;2023-09-08T11:37:27;7.18;;;3.30;;
16272;SDS011;8244;50.044;9.006;2023-09-08T11:42:28;4.10;;;3.38;;
16272;SDS011;8244;50.044;9.006;2023-09-08T11:47:30;4.90;;;3.10;;
16272;SDS011;8244;50.044;9.006;2023-09-08T11:52:34;4.97;;;3.03;;
16272;SDS011;8244;50.044;9.006;2023-09-08T11:57:36;5.70;;;3.38;;
16272;SDS011;8244;50.044;9.006;2023-09-08T12:02:38;5.53;;;3.53;;
16272;SDS011;8244;50.044;9.006;2023-09-08T12:07:42;4.15;;;3.40;;
16272;SDS011;8244;50.044;9.006;2023-09-08T12:12:44;5.28;;;3.00;;
16272;SDS011;8244;50.044;9.006;2023-09-08T12:17:47;4.53;;;3.28;;
16272;SDS011;8244;50.044;9.006;2023-09-08T12:22:51;4.82;;;3.30;;
16272;SDS011;8244;50.044;9.006;2023-09-08T12:27:53;3.83;;;3.28;;
16272;SDS011;8244;50.044;9.006;2023-09-08T12:32:56;9.90;;;3.40;;
16272;SDS011;8244;50.044;9.006;2023-09-08T12:38:03;5.60;;;3.30;;
16272;SDS011;8244;50.044;9.006;2023-09-08T12:43:07;5.80;;;3.47;;
16272;SDS011;8244;50.044;9.006;2023-09-08T12:48:09;6.13;;;3.35;;
16272;SDS011;8244;50.044;9.006;2023-09-08T12:53:13;4.03;;;3.25;;
16272;SDS011;8244;50.044;9.006;2023-09-08T12:58:15;5.50;;;3.13;;
16272;SDS011;8244;50.044;9.006;2023-09-08T13:03:17;4.90;;;3.10;;
16272;SDS011;8244;50.044;9.006;2023-09-08T13:08:20;6.07;;;3.10;;
16272;SDS011;8244;50.044;9.006;2023-09-08T13:13:22;4.88;;;3.10;;
16272;SDS011;8244;50.044;9.006;2023-09-08T13:18:24;5.68;;;3.20;;
16272;SDS011;8244;50.044;9.006;2023-09-08T13:23:27;3.10;;;2.80;;
16272;SDS011;8244;50.044;9.006;2023-09-08T13:28:29;4.65;;;3.05;;
16272;SDS011;8244;50.044;9.006;2023-09-08T13:33:31;4.25;;;3.40;;
16272;SDS011;8244;50.044;9.006;2023-09-08T13:38:34;6.35;;;3.40;;
16272;SDS011;8244;50.044;9.006;2023-09-08T13:43:36;7.30;;;3.20;;
16272;SDS011;8244;50.044;9.006;2023-09-08T13:48:38;5.65;;;3.50;;
16272;SDS011;8244;50.044;9.006;2023-09-08T13:53:42;4.15;;;3.03;;
16272;SDS011;8244;50.044;9.006;2023-09-08T13:58:43;3.70;;;2.90;;
16272;SDS011;8244;50.044;9.006;2023-09-08T14:03:45;4.35;;;3.15;;
16272;SDS011;8244;50.044;9.006;2023-09-08T14:08:51;4.30;;;3.13;;
16272;SDS011;8244;50.044;9.006;2023-09-08T14:13:52;3.90;;;3.10;;
16272;SDS011;8244;50.044;9.006;2023-09-08T14:18:54;5.30;;;2.90;;
16272;SDS011;8244;50.044;9.006;2023-09-08T14:23:57;5.93;;;3.38;;
16272;SDS011;8244;50.044;9.006;2023-09-08T14:28:59;5.97;;;3.30;;
16272;SDS011;8244;50.044;9.006;2023-09-08T14:34:01;4.10;;;2.97;;
16272;SDS011;8244;50.044;9.006;2023-09-08T14:39:05;4.03;;;3.10;;
16272;SDS011;8244;50.044;9.006;2023-09-08T14:44:06;5.57;;;3.20;;
16272;SDS011;8244;50.044;9.006;2023-09-08T14:49:08;7.20;;;3.28;;
16272;SDS011;8244;50.044;9.006;2023-09-08T14:54:11;6.22;;;3.30;;
16272;SDS011;8244;50.044;9.006;2023-09-08T14:59:13;5.28;;;3.50;;
16272;SDS011;8244;50.044;9.006;2023-09-08T15:04:14;5.20;;;3.20;;
16272;SDS011;8244;50.044;9.006;2023-09-08T15:09:18;7.70;;;3.50;;
16272;SDS011;8244;50.044;9.006;2023-09-08T15:14:19;6.32;;;3.50;;
16272;SDS011;8244;50.044;9.006;2023-09-08T15:19:21;4.35;;;3.00;;
16272;SDS011;8244;50.044;9.006;2023-09-08T15:24:26;7.55;;;3.50;;
16272;SDS011;8244;50.044;9.006;2023-09-08T15:29:28;6.47;;;3.42;;
16272;SDS011;8244;50.044;9.006;2023-09-08T15:34:32;5.88;;;3.45;;
16272;SDS011;8244;50.044;9.006;2023-09-08T15:39:36;4.25;;;3.53;;
16272;SDS011;8244;50.044;9.006;2023-09-08T15:44:37;7.80;;;3.50;;
16272;SDS011;8244;50.044;9.006;2023-09-08T15:49:39;4.53;;;3.40;;
16272;SDS011;8244;50.044;9.006;2023-09-08T15:54:43;4.82;;;3.58;;
16272;SDS011;8244;50.044;9.006;2023-09-08T15:59:45;6.97;;;3.40;;
16272;SDS011;8244;50.044;9.006;2023-09-08T16:04:47;6.00;;;3.30;;
16272;SDS011;8244;50.044;9.006;2023-09-08T16:09:50;5.85;;;3.25;;
16272;SDS011;8244;50.044;9.006;2023-09-08T16:14:52;9.82;;;3.70;;
16272;SDS011;8244;50.044;9.006;2023-09-08T16:19:54;4.85;;;3.10;;
16272;SDS011;8244;50.044;9.006;2023-09-08T16:24:57;6.38;;;3.60;;
16272;SDS011;8244;50.044;9.006;2023-09-08T16:29:59;5.35;;;3.45;;
16272;SDS011;8244;50.044;9.006;2023-09-08T16:35:01;8.90;;;3.40;;
16272;SDS011;8244;50.044;9.006;2023-09-08T16:40:06;6.00;;;3.50;;
16272;SDS011;8244;50.044;9.006;2023-09-08T16:45:08;5.53;;;3.28;;
16272;SDS011;8244;50.044;9.006;2023-09-08T16:50:10;8.18;;;3.70;;
16272;SDS011;8244;50.044;9.006;2023-09-08T16:55:13;4.68;;;3.30;;
16272;SDS011;8244;50.044;9.006;2023-09-08T17:00:16;8.68;;;3.55;;
16272;SDS011;8244;50.044;9.006;2023-09-08T17:05:18;8.15;;;3.75;;
16272;SDS011;8244;50.044;9.006;2023-09-08T17:10:22;6.13;;;3.40;;
16272;SDS011;8244;50.044;9.006;2023-09-08T17:15:24;5.95;;;3.17;;
16272;SDS011;8244;50.044;9.006;2023-09-08T17:20:25;6.65;;;3.80;;
16272;SDS011;8244;50.044;9.006;2023-09-08T17:25:29;9.57;;;3.80;;
16272;SDS011;8244;50.044;9.006;2023-09-08T17:30:31;6.45;;;3.80;;
16272;SDS011;8244;50.044;9.006;2023-09-08T17:35:35;5.55;;;3.90;;
16272;SDS011;8244;50.044;9.006;2023-09-08T17:40:39;8.25;;;3.97;;
16272;SDS011;8244;50.044;9.006;2023-09-08T17:45:43;6.70;;;3.88;;
16272;SDS011;8244;50.044;9.006;2023-09-08T17:50:45;7.68;;;4.15;;
16272;SDS011;8244;50.044;9.006;2023-09-08T17:55:49;5.80;;;3.90;;
16272;SDS011;8244;50.044;9.006;2023-09-08T18:00:50;6.13;;;3.83;;
16272;SDS011;8244;50.044;9.006;2023-09-08T18:05:53;6.95;;;3.70;;
16272;SDS011;8244;50.044;9.006;2023-09-08T18:10:59;5.20;;;3.45;;
16272;SDS011;8244;50.044;9.006;2023-09-08T18:16:03;9.15;;;3.75;;
16272;SDS011;8244;50.044;9.006;2023-09-08T18:21:05;10.13;;;4.03;;
16272;SDS011;8244;50.044;9.006;2023-09-08T18:26:08;7.38;;;4.00;;
16272;SDS011;8244;50.044;9.006;2023-09-08T18:31:10;7.97;;;4.35;;
16272;SDS011;8244;50.044;9.006;2023-09-08T18:36:12;6.90;;;4.63;;
16272;SDS011;8244;50.044;9.006;2023-09-08T18:41:15;6.18;;;4.45;;
16272;SDS011;8244;50.044;9.006;2023-09-08T18:46:17;9.63;;;4.90;;
16272;SDS011;8244;50.044;9.006;2023-09-08T18:51:19;8.15;;;5.00;;
16272;SDS011;8244;50.044;9.006;2023-09-08T18:56:22;9.60;;;5.55;;
16272;SDS011;8244;50.044;9.006;2023-09-08T19:01:24;7.93;;;5.13;;
16272;SDS011;8244;50.044;9.006;2023-09-08T19:06:26;8.07;;;5.30;;
16272;SDS011;8244;50.044;9.006;2023-09-08T19:11:32;7.07;;;5.10;;
16272;SDS011;8244;50.044;9.006;2023-09-08T19:16:33;8.02;;;5.38;;
16272;SDS011;8244;50.044;9.006;2023-09-08T19:21:35;8.10;;;5.72;;
16272;SDS011;8244;50.044;9.006;2023-09-08T19:26:38;8.70;;;5.88;;
16272;SDS011;8244;50.044;9.006;2023-09-08T19:31:40;8.45;;;6.10;;
16272;SDS011;8244;50.044;9.006;2023-09-08T19:36:43;7.50;;;5.53;;
16272;SDS011;8244;50.044;9.006;2023-09-08T19:41:46;9.30;;;6.38;;
16272;SDS011;8244;50.044;9.006;2023-09-08T19:46:48;9.15;;;6.32;;
16272;SDS011;8244;50.044;9.006;2023-09-08T19:51:49;10.00;;;6.20;;
16272;SDS011;8244;50.044;9.006;2023-09-08T19:56:52;10.65;;;6.43;;
16272;SDS011;8244;50.044;9.006;2023-09-08T20:01:54;8.23;;;6.38;;
16272;SDS011;8244;50.044;9.006;2023-09-08T20:06:56;10.23;;;6.75;;
16272;SDS011;8244;50.044;9.006;2023-09-08T20:11:59;8.82;;;6.45;;
16272;SDS011;8244;50.044;9.006;2023-09-08T20:17:01;9.07;;;5.68;;
16272;SDS011;8244;50.044;9.006;2023-09-08T20:22:04;10.27;;;6.80;;
16272;SDS011;8244;50.044;9.006;2023-09-08T20:27:07;11.93;;;6.88;;
16272;SDS011;8244;50.044;9.006;2023-09-08T20:32:10;8.98;;;6.35;;
16272;SDS011;8244;50.044;9.006;2023-09-08T20:37:12;11.10;;;5.90;;
16272;SDS011;8244;50.044;9.006;2023-09-08T20:42:15;10.25;;;5.65;;
16272;SDS011;8244;50.044;9.006;2023-09-08T20:47:19;9.55;;;6.22;;
16272;SDS011;8244;50.044;9.006;2023-09-08T20:52:21;8.07;;;6.18;;
16272;SDS011;8244;50.044;9.006;2023-09-08T20:57:27;9.10;;;6.80;;
16272;SDS011;8244;50.044;9.006;2023-09-08T21:02:28;10.13;;;6.63;;
16272;SDS011;8244;50.044;9.006;2023-09-08T21:07:30;8.68;;;6.18;;
16272;SDS011;8244;50.044;9.006;2023-09-08T21:12:33;9.40;;;6.00;;
16272;SDS011;8244;50.044;9.006;2023-09-08T21:17:36;11.77;;;6.57;;
16272;SDS011;8244;50.044;9.006;2023-09-08T21:22:37;9.18;;;6.10;;
16272;SDS011;8244;50.044;9.006;2023-09-08T21:27:41;9.15;;;6.07;;
16272;SDS011;8244;50.044;9.006;2023-09-08T21:32:43;11.63;;;6.72;;
16272;SDS011;8244;50.044;9.006;2023-09-08T21:37:44;10.40;;;6.38;;
16272;SDS011;8244;50.044;9.006;2023-09-08T21:42:48;12.18;;;7.10;;
16272;SDS011;8244;50.044;9.006;2023-09-08T21:47:50;13.27;;;6.80;;
16272;SDS011;8244;50.044;9.006;2023-09-08T21:52:52;10.13;;;6.32;;
16272;SDS011;8244;50.044;9.006;2023-09-08T21:57:55;10.30;;;6.72;;
16272;SDS011;8244;50.044;9.006;2023-09-08T22:02:57;9.75;;;6.50;;
16272;SDS011;8244;50.044;9.006;2023-09-08T22:08:00;11.38;;;6.22;;
16272;SDS011;8244;50.044;9.006;2023-09-08T22:13:04;10.50;;;6.75;;
16272;SDS011;8244;50.044;9.006;2023-09-08T22:18:06;8.80;;;6.25;;
16272;SDS011;8244;50.044;9.006;2023-09-08T22:23:09;10.50;;;6.43;;
16272;SDS011;8244;50.044;9.006;2023-09-08T22:28:12;12.13;;;7.15;;
16272;SDS011;8244;50.044;9.006;2023-09-08T22:33:14;9.85;;;6.20;;
16272;SDS011;8244;50.044;9.006;2023-09-08T22:38:15;10.77;;;7.38;;
16272;SDS011;8244;50.044;9.006;2023-09-08T22:43:18;12.10;;;7.07;;
16272;SDS011;8244;50.044;9.006;2023-09-08T22:48:20;10.85;;;6.63;;
16272;SDS011;8244;50.044;9.006;2023-09-08T22:53:23;12.15;;;7.90;;
16272;SDS011;8244;50.044;9.006;2023-09-08T22:58:27;13.93;;;7.05;;
16272;SDS011;8244;50.044;9.006;2023-09-08T23:03:38;13.63;;;7.45;;
16272;SDS011;8244;50.044;9.006;2023-09-08T23:08:39;11.65;;;7.63;;
16272;SDS011;8244;50.044;9.006;2023-09-08T23:13:43;9.88;;;7.13;;
16272;SDS011;8244;50.044;9.006;2023-09-08T23:18:44;13.30;;;9.00;;
16272;SDS011;8244;50.044;9.006;2023-09-08T23:23:46;13.30;;;9.65;;
16272;SDS011;8244;50.044;9.006;2023-09-08T23:28:50;10.93;;;8.25;;
16272;SDS011;8244;50.044;9.006;2023-09-08T23:33:54;10.65;;;8.00;;
16272;SDS011;8244;50.044;9.006;2023-09-08T23:38:56;10.95;;;7.97;;
16272;SDS011;8244;50.044;9.006;2023-09-08T23:43:59;10.90;;;7.93;;
16272;SDS011;8244;50.044;9.006;2023-09-08T23:49:01;10.73;;;7.43;;
16272;SDS011;8244;50.044;9.006;2023-09-08T23:54:03;12.88;;;8.00;;
16272;SDS011;8244;50.044;9.006;2023-09-08T23:59:06;12.00;;;7.20;;
